Time;durP1;ratioP1;P1;durP2;ratioP2;P2;SDS_P1;SDS_P2;PMS_P1;PMS_P2;Temp;Humidity;BMP_temperature;BMP_pressure;BME280_temperature;BME280_humidity;BME280_pressure;Samples;Min_cycle;Max_cycle;Signal;HPM_P1;HPM_P2
2021/06/29 00:02:17;;;;;;;8.27;7.60;;;21.60;99.90;;;;;;5012103;28;20172;-65
2021/06/29 00:04:43;;;;;;;8.70;8.10;;;21.60;99.90;;;;;;5011685;28;20202;-64
2021/06/29 00:07:08;;;;;;;7.88;7.38;;;21.60;99.90;;;;;;5011635;28;20168;-65
2021/06/29 00:09:35;;;;;;;8.85;8.25;;;21.60;99.90;;;;;;5011823;28;20257;-64
2021/06/29 00:12:01;;;;;;;10.52;9.73;;;21.60;99.90;;;;;;5011853;28;20169;-64
2021/06/29 00:14:27;;;;;;;8.57;7.97;;;21.60;99.90;;;;;;5011758;28;20180;-64
2021/06/29 00:16:54;;;;;;;9.10;8.40;;;21.50;99.90;;;;;;5012201;28;20204;-66
2021/06/29 00:19:19;;;;;;;10.13;9.32;;;21.50;99.90;;;;;;5011913;28;20192;-65
2021/06/29 00:21:49;;;;;;;10.27;9.60;;;21.20;99.90;;;;;;5012924;28;20518;-66
2021/06/29 00:24:15;;;;;;;12.00;10.27;;;21.00;99.90;;;;;;5012920;28;20233;-65
2021/06/29 00:26:42;;;;;;;11.07;10.18;;;20.80;99.90;;;;;;5013081;28;20716;-66
2021/06/29 00:29:07;;;;;;;11.47;10.57;;;20.60;99.90;;;;;;5011442;28;20220;-66
2021/06/29 00:31:33;;;;;;;10.90;10.00;;;20.60;99.90;;;;;;5012318;28;20214;-64
2021/06/29 00:33:58;;;;;;;11.53;10.63;;;20.50;99.90;;;;;;5011835;28;20176;-66
2021/06/29 00:36:24;;;;;;;12.50;11.40;;;20.50;99.90;;;;;;5011423;28;20275;-65
2021/06/29 00:38:50;;;;;;;11.47;10.53;;;20.40;99.90;;;;;;5011235;28;20275;-65
2021/06/29 00:41:16;;;;;;;11.23;10.27;;;20.30;99.90;;;;;;5011375;28;20238;-64
2021/06/29 00:43:49;;;;;;;10.93;10.10;;;20.30;99.90;;;;;;5011642;28;20180;-64
2021/06/29 00:46:16;;;;;;;11.30;10.30;;;20.20;99.90;;;;;;5011115;28;20215;-63
2021/06/29 00:48:43;;;;;;;12.27;11.20;;;20.10;99.90;;;;;;5011249;28;20207;-65
2021/06/29 00:51:12;;;;;;;13.47;12.27;;;20.00;99.90;;;;;;5011195;28;20184;-64
2021/06/29 00:53:37;;;;;;;12.30;11.30;;;19.90;99.90;;;;;;5015234;28;20191;-65
2021/06/29 00:56:05;;;;;;;12.93;11.82;;;19.80;99.90;;;;;;5015116;28;20177;-66
2021/06/29 00:58:30;;;;;;;13.43;12.23;;;19.80;99.90;;;;;;5015217;28;20311;-64
2021/06/29 01:00:56;;;;;;;13.77;12.50;;;19.80;99.90;;;;;;5015243;28;20242;-64
2021/06/29 01:03:21;;;;;;;12.90;11.70;;;19.80;99.90;;;;;;5015627;28;20223;-66
2021/06/29 01:05:47;;;;;;;13.37;12.27;;;19.80;99.90;;;;;;5016375;28;20479;-66
2021/06/29 01:08:13;;;;;;;13.50;12.13;;;19.80;99.90;;;;;;5015392;28;20611;-64
2021/06/29 01:10:38;;;;;;;14.77;12.87;;;19.70;99.90;;;;;;5015179;28;20567;-65
2021/06/29 01:13:04;;;;;;;13.90;12.70;;;19.70;99.90;;;;;;5014664;28;20195;-65
2021/06/29 01:15:30;;;;;;;14.00;12.80;;;19.70;99.90;;;;;;5014317;28;20658;-65
2021/06/29 01:17:58;;;;;;;13.33;12.13;;;19.70;99.90;;;;;;5014411;28;20279;-64
2021/06/29 01:20:27;;;;;;;16.07;13.43;;;19.70;99.90;;;;;;5015554;28;20259;-64
2021/06/29 01:22:56;;;;;;;14.40;12.90;;;19.70;99.90;;;;;;5014627;28;20169;-65
2021/06/29 01:25:27;;;;;;;14.50;13.23;;;19.70;99.90;;;;;;5014977;28;20262;-64
2021/06/29 01:32:56;;;;;;;14.20;12.50;;;19.60;99.90;;;;;;5014899;28;20455;-66
2021/06/29 01:35:21;;;;;;;14.07;12.67;;;19.60;99.90;;;;;;5015665;28;20172;-65
2021/06/29 01:37:49;;;;;;;15.50;13.90;;;19.60;99.90;;;;;;5015540;28;20211;-66
2021/06/29 01:40:28;;;;;;;12.77;11.63;;;19.50;99.90;;;;;;5015530;28;20204;-65
2021/06/29 01:42:57;;;;;;;12.90;11.47;;;19.60;99.90;;;;;;5015756;28;20168;-66
2021/06/29 01:45:23;;;;;;;12.23;11.13;;;19.70;99.90;;;;;;5014875;28;20172;-66
2021/06/29 01:50:16;;;;;;;13.90;12.50;;;19.50;99.90;;;;;;5015308;28;20219;-66
2021/06/29 01:52:42;;;;;;;15.43;13.13;;;19.40;99.90;;;;;;5014954;28;20188;-65
2021/06/29 01:55:09;;;;;;;12.40;11.33;;;19.50;99.90;;;;;;5015393;28;20180;-66
2021/06/29 01:57:37;;;;;;;13.07;11.87;;;19.40;99.90;;;;;;5013667;28;20208;-66
2021/06/29 02:00:09;;;;;;;12.90;11.60;;;19.40;99.90;;;;;;5014399;28;20174;-66
2021/06/29 02:02:35;;;;;;;14.70;11.27;;;19.30;99.90;;;;;;5013880;28;20208;-66
2021/06/29 02:05:02;;;;;;;12.50;11.20;;;19.30;99.90;;;;;;5013493;28;20180;-66
2021/06/29 02:07:27;;;;;;;16.73;12.03;;;19.40;99.90;;;;;;5013482;28;20256;-65
2021/06/29 02:09:53;;;;;;;14.53;12.07;;;19.50;99.90;;;;;;5015301;28;20177;-65
2021/06/29 02:12:18;;;;;;;12.07;11.00;;;19.50;99.90;;;;;;5014611;28;20176;-65
2021/06/29 02:14:44;;;;;;;11.23;10.27;;;19.50;99.90;;;;;;5014515;28;20195;-66
2021/06/29 02:17:10;;;;;;;10.63;9.70;;;19.50;99.90;;;;;;5014187;28;20204;-65
2021/06/29 02:19:36;;;;;;;10.57;9.70;;;19.50;99.90;;;;;;5014656;28;20179;-66
2021/06/29 02:22:02;;;;;;;11.40;10.20;;;19.50;99.90;;;;;;5014091;28;20583;-66
2021/06/29 02:24:28;;;;;;;11.03;10.07;;;19.50;99.90;;;;;;5013495;28;20180;-65
2021/06/29 02:26:54;;;;;;;11.23;10.13;;;19.50;99.90;;;;;;5013604;28;20173;-66
2021/06/29 02:29:19;;;;;;;12.13;11.13;;;19.50;99.90;;;;;;5013345;28;20267;-65
2021/06/29 02:31:45;;;;;;;12.90;11.70;;;19.50;99.90;;;;;;5014017;28;20188;-66
2021/06/29 02:34:11;;;;;;;12.43;11.40;;;19.50;99.90;;;;;;5014148;28;20176;-64
2021/06/29 02:36:36;;;;;;;12.17;10.97;;;19.50;99.90;;;;;;5013039;28;20203;-65
2021/06/29 02:39:03;;;;;;;11.70;10.70;;;19.50;99.90;;;;;;5013383;28;20246;-64
2021/06/29 02:41:29;;;;;;;10.97;10.10;;;19.40;99.90;;;;;;5013224;28;20226;-64
2021/06/29 02:43:55;;;;;;;11.40;10.50;;;19.40;99.90;;;;;;5012324;28;20183;-65
2021/06/29 02:46:20;;;;;;;12.57;11.30;;;19.40;99.90;;;;;;5012930;28;20184;-64
2021/06/29 02:48:46;;;;;;;11.37;10.40;;;19.40;99.90;;;;;;5013270;28;20415;-64
2021/06/29 02:51:13;;;;;;;12.13;11.03;;;19.40;99.90;;;;;;5012919;28;20188;-63
2021/06/29 02:53:39;;;;;;;12.97;11.77;;;19.30;99.90;;;;;;5013082;28;20541;-65
2021/06/29 02:56:04;;;;;;;13.10;11.70;;;19.30;99.90;;;;;;5013108;28;20188;-64
2021/06/29 02:58:30;;;;;;;12.40;11.23;;;19.30;99.90;;;;;;5012926;28;20204;-64
2021/06/29 03:00:56;;;;;;;12.53;11.17;;;19.10;99.90;;;;;;5013345;28;20630;-65
2021/06/29 03:03:40;;;;;;;14.23;13.03;;;19.10;99.90;;;;;;5013985;28;20273;-66
2021/06/29 03:06:05;;;;;;;13.03;11.60;;;19.10;99.90;;;;;;5014037;28;20237;-66
2021/06/29 03:08:31;;;;;;;15.00;13.67;;;19.00;99.90;;;;;;5013843;28;20204;-64
2021/06/29 03:10:56;;;;;;;13.27;11.97;;;19.00;99.90;;;;;;5012956;28;20180;-66
2021/06/29 03:13:22;;;;;;;14.87;13.33;;;19.00;99.90;;;;;;5012543;28;20183;-66
2021/06/29 03:15:48;;;;;;;14.83;13.37;;;18.90;99.90;;;;;;5011666;28;20175;-65
2021/06/29 03:18:13;;;;;;;14.63;11.93;;;18.90;99.90;;;;;;5012688;28;20207;-64
2021/06/29 03:20:39;;;;;;;12.90;11.67;;;18.80;99.90;;;;;;5013612;28;20172;-64
2021/06/29 03:23:05;;;;;;;12.77;11.57;;;18.70;99.90;;;;;;5012490;28;20168;-64
2021/06/29 03:25:30;;;;;;;13.57;10.60;;;18.60;99.90;;;;;;5012644;28;20177;-64
2021/06/29 03:27:56;;;;;;;11.53;10.53;;;18.60;99.90;;;;;;5012353;28;20212;-65
2021/06/29 03:30:22;;;;;;;11.93;10.50;;;18.50;99.90;;;;;;5012431;28;20177;-65
2021/06/29 03:32:47;;;;;;;12.30;11.20;;;18.40;99.90;;;;;;5013015;28;20548;-64
2021/06/29 03:35:13;;;;;;;12.13;10.47;;;18.40;99.90;;;;;;5012175;28;20710;-64
2021/06/29 03:37:39;;;;;;;11.97;10.97;;;18.30;99.90;;;;;;5012139;28;20261;-64
2021/06/29 03:40:06;;;;;;;13.20;11.93;;;18.20;99.90;;;;;;5012264;28;20258;-64
2021/06/29 03:42:31;;;;;;;15.17;13.20;;;18.20;99.90;;;;;;5012383;28;20172;-64
2021/06/29 03:44:57;;;;;;;14.77;13.10;;;18.20;99.90;;;;;;5012047;28;20168;-64
2021/06/29 03:47:22;;;;;;;13.97;12.53;;;18.20;99.90;;;;;;5012021;28;20249;-64
2021/06/29 03:49:48;;;;;;;13.87;12.57;;;18.20;99.90;;;;;;5011898;28;20203;-64
2021/06/29 03:52:13;;;;;;;23.87;12.63;;;18.20;99.90;;;;;;5012376;28;20255;-64
2021/06/29 03:54:39;;;;;;;13.33;11.77;;;18.10;99.90;;;;;;5012108;28;20180;-64
2021/06/29 03:57:05;;;;;;;12.97;11.70;;;18.10;99.90;;;;;;5011704;28;20266;-64
2021/06/29 03:59:30;;;;;;;21.03;13.13;;;18.10;99.90;;;;;;5011959;28;20306;-64
2021/06/29 04:01:56;;;;;;;15.90;12.60;;;18.10;99.90;;;;;;5012112;28;20168;-65
2021/06/29 04:04:22;;;;;;;14.33;11.53;;;18.20;99.90;;;;;;5011993;28;20172;-64
2021/06/29 04:06:47;;;;;;;14.07;12.53;;;18.30;99.90;;;;;;5011752;28;20211;-65
2021/06/29 04:09:13;;;;;;;11.77;10.77;;;18.30;99.90;;;;;;5011709;28;20188;-64
2021/06/29 04:11:38;;;;;;;11.50;10.30;;;18.30;99.90;;;;;;5011879;28;20199;-64
2021/06/29 04:14:05;;;;;;;10.03;8.77;;;18.40;99.90;;;;;;5011737;28;20191;-64
2021/06/29 04:16:30;;;;;;;10.03;9.03;;;18.40;99.90;;;;;;5010399;28;20242;-65
2021/06/29 04:18:56;;;;;;;8.53;7.93;;;18.50;99.90;;;;;;5011560;28;20227;-65
2021/06/29 04:21:21;;;;;;;8.53;7.93;;;18.40;99.90;;;;;;5011513;28;20195;-64
2021/06/29 04:23:47;;;;;;;8.03;7.43;;;18.40;99.90;;;;;;5011825;28;20226;-65
2021/06/29 04:26:18;;;;;;;8.13;7.33;;;18.50;99.90;;;;;;5011170;28;20215;-65
2021/06/29 04:28:44;;;;;;;7.50;6.87;;;18.50;99.90;;;;;;5011516;28;20217;-64
2021/06/29 04:31:10;;;;;;;8.53;7.70;;;18.50;99.90;;;;;;5011548;28;20182;-64
2021/06/29 04:33:36;;;;;;;9.47;8.40;;;18.60;99.90;;;;;;5011398;28;20254;-65
2021/06/29 04:36:03;;;;;;;10.23;9.33;;;18.60;99.90;;;;;;5011465;28;20206;-65
2021/06/29 04:38:28;;;;;;;11.40;8.73;;;18.70;99.90;;;;;;5011465;28;20215;-65
2021/06/29 04:40:54;;;;;;;9.37;8.53;;;18.70;99.90;;;;;;5011598;28;20214;-65
2021/06/29 04:43:19;;;;;;;10.27;9.30;;;18.80;99.90;;;;;;5011788;28;20176;-65
2021/06/29 04:45:45;;;;;;;9.37;8.57;;;19.00;99.90;;;;;;5011250;28;20242;-65
2021/06/29 04:48:11;;;;;;;7.93;7.30;;;19.10;99.90;;;;;;5011454;28;20259;-65
2021/06/29 04:50:38;;;;;;;9.30;8.60;;;19.30;99.90;;;;;;5011156;28;20187;-64
2021/06/29 04:53:03;;;;;;;8.30;7.70;;;19.50;99.90;;;;;;5011878;28;20176;-64
2021/06/29 04:55:32;;;;;;;7.60;6.83;;;19.80;99.90;;;;;;5011308;28;20179;-65
2021/06/29 04:57:58;;;;;;;7.43;6.93;;;19.80;99.90;;;;;;5010860;28;20776;-65
2021/06/29 05:00:24;;;;;;;6.27;5.87;;;19.90;99.90;;;;;;5011523;28;20514;-65
2021/06/29 05:02:49;;;;;;;8.93;5.80;;;19.80;99.90;;;;;;5011288;28;20219;-64
2021/06/29 05:05:17;;;;;;;7.43;7.00;;;19.80;99.90;;;;;;5011447;28;20172;-65
2021/06/29 05:07:43;;;;;;;7.67;7.17;;;19.60;99.90;;;;;;5010678;28;20246;-64
2021/06/29 05:10:10;;;;;;;6.80;6.40;;;19.60;99.90;;;;;;5011536;28;20181;-65
2021/06/29 05:12:36;;;;;;;7.50;5.63;;;19.60;99.90;;;;;;5011107;28;20184;-64
2021/06/29 05:15:03;;;;;;;6.50;6.10;;;19.60;99.90;;;;;;5011462;28;20176;-64
2021/06/29 05:17:28;;;;;;;6.00;5.70;;;19.60;99.90;;;;;;5010456;28;20241;-65
2021/06/29 05:19:54;;;;;;;6.27;5.90;;;19.60;99.90;;;;;;5011380;28;20176;-65
2021/06/29 05:22:19;;;;;;;8.03;7.53;;;19.70;99.90;;;;;;5011335;28;20172;-65
2021/06/29 05:24:45;;;;;;;6.10;5.80;;;19.80;99.90;;;;;;5011065;28;20191;-65
2021/06/29 05:27:10;;;;;;;6.10;5.80;;;19.90;99.90;;;;;;5010940;28;20717;-65
2021/06/29 05:29:36;;;;;;;5.67;5.37;;;20.10;99.90;;;;;;5010703;28;20271;-65
2021/06/29 05:32:03;;;;;;;6.93;6.53;;;20.30;99.90;;;;;;5011365;28;20569;-65
2021/06/29 05:34:29;;;;;;;6.13;5.73;;;20.40;99.90;;;;;;5010748;28;20184;-64
2021/06/29 05:36:54;;;;;;;6.30;5.90;;;20.50;99.90;;;;;;5011000;28;20215;-64
2021/06/29 05:39:20;;;;;;;6.03;5.70;;;20.60;99.90;;;;;;5012233;28;20235;-65
2021/06/29 05:41:45;;;;;;;5.90;5.60;;;20.70;99.90;;;;;;5014684;28;20200;-65
2021/06/29 05:44:11;;;;;;;5.77;5.47;;;20.80;99.90;;;;;;5014474;28;20176;-65
2021/06/29 05:46:37;;;;;;;6.77;6.37;;;20.90;99.90;;;;;;5014308;28;20177;-65
2021/06/29 05:49:08;;;;;;;6.50;5.80;;;20.90;99.90;;;;;;5014084;28;20216;-64
2021/06/29 05:51:34;;;;;;;7.17;6.73;;;21.00;99.90;;;;;;5014330;28;20167;-65
2021/06/29 05:53:59;;;;;;;6.47;6.07;;;21.00;99.90;;;;;;5014371;28;20184;-64
2021/06/29 05:56:25;;;;;;;5.80;5.50;;;21.00;99.90;;;;;;5013978;28;20268;-65
2021/06/29 05:58:51;;;;;;;6.50;6.00;;;20.90;99.90;;;;;;5014092;28;20697;-65
2021/06/29 06:01:16;;;;;;;6.67;6.27;;;20.80;99.90;;;;;;5014168;28;20741;-65
2021/06/29 06:03:42;;;;;;;5.50;5.20;;;20.80;99.90;;;;;;5014142;28;20997;-64
2021/06/29 06:06:08;;;;;;;7.40;6.70;;;20.80;99.90;;;;;;5014054;28;20168;-65
2021/06/29 06:08:33;;;;;;;5.90;5.60;;;20.80;99.90;;;;;;5013814;28;20192;-64
2021/06/29 06:10:59;;;;;;;7.30;6.80;;;20.80;99.90;;;;;;5014288;28;20666;-65
2021/06/29 06:13:24;;;;;;;6.40;6.03;;;20.90;99.90;;;;;;5013622;28;20200;-65
2021/06/29 06:15:52;;;;;;;5.32;5.13;;;21.10;99.90;;;;;;5013857;28;20169;-65
2021/06/29 06:18:18;;;;;;;5.32;5.03;;;21.30;99.90;;;;;;5013692;28;20698;-65
2021/06/29 06:20:44;;;;;;;5.45;5.00;;;21.70;99.90;;;;;;5013856;28;20234;-64
2021/06/29 06:23:09;;;;;;;5.70;5.40;;;22.00;99.90;;;;;;5013800;28;20168;-64
2021/06/29 06:25:35;;;;;;;5.43;5.13;;;22.20;99.90;;;;;;5013811;28;20790;-65
2021/06/29 06:28:02;;;;;;;5.82;5.53;;;22.20;99.90;;;;;;5013472;28;20200;-65
2021/06/29 06:30:28;;;;;;;5.63;5.22;;;22.20;99.90;;;;;;5013531;28;20235;-64
2021/06/29 06:32:54;;;;;;;5.22;4.90;;;22.30;99.90;;;;;;5014141;28;20184;-65
2021/06/29 06:35:20;;;;;;;5.15;4.85;;;22.30;99.90;;;;;;5013226;28;20184;-65
2021/06/29 06:37:45;;;;;;;4.95;4.65;;;22.10;99.90;;;;;;5013444;28;20306;-64
2021/06/29 06:40:12;;;;;;;5.93;5.55;;;22.10;99.90;;;;;;5013182;28;20226;-65
2021/06/29 06:42:38;;;;;;;5.40;5.10;;;22.00;99.90;;;;;;5012180;28;20555;-65
2021/06/29 06:45:06;;;;;;;6.07;5.68;;;21.80;99.90;;;;;;5013216;28;20184;-65
2021/06/29 06:47:32;;;;;;;6.75;6.28;;;21.50;99.90;;;;;;5013037;28;20203;-65
2021/06/29 06:49:58;;;;;;;6.25;5.85;;;21.40;99.90;;;;;;5012699;28;20196;-65
2021/06/29 06:52:23;;;;;;;7.17;6.67;;;21.50;99.90;;;;;;5011704;28;20188;-65
2021/06/29 06:54:49;;;;;;;7.37;6.97;;;21.50;99.90;;;;;;5013221;28;20230;-65
2021/06/29 06:57:14;;;;;;;6.10;5.70;;;21.50;99.90;;;;;;5012334;28;20211;-65
2021/06/29 06:59:40;;;;;;;6.35;5.95;;;21.60;99.90;;;;;;5013029;28;20172;-65
2021/06/29 07:02:06;;;;;;;5.63;5.32;;;21.70;99.90;;;;;;5012893;28;20243;-66
2021/06/29 07:04:32;;;;;;;6.57;6.03;;;21.90;99.90;;;;;;5012753;28;20559;-65
2021/06/29 07:06:57;;;;;;;5.57;5.13;;;22.10;99.90;;;;;;5012996;28;20176;-65
2021/06/29 07:09:23;;;;;;;5.03;4.78;;;22.10;99.90;;;;;;5012397;28;20736;-66
2021/06/29 07:11:49;;;;;;;5.05;4.75;;;22.10;99.90;;;;;;5013170;28;20204;-65
2021/06/29 07:14:15;;;;;;;5.95;5.40;;;22.10;99.90;;;;;;5012597;28;20206;-66
2021/06/29 07:16:42;;;;;;;5.45;5.15;;;21.90;99.90;;;;;;5011654;28;20565;-65
2021/06/29 07:19:08;;;;;;;5.50;5.20;;;21.90;99.90;;;;;;5012454;28;20221;-66
2021/06/29 07:21:33;;;;;;;5.78;5.40;;;21.90;99.90;;;;;;5012669;28;20176;-66
2021/06/29 07:24:00;;;;;;;6.13;5.72;;;21.90;99.90;;;;;;5011620;28;20180;-66
2021/06/29 07:26:26;;;;;;;5.38;5.07;;;21.90;99.90;;;;;;5012541;28;20200;-66
2021/06/29 07:28:52;;;;;;;4.90;4.65;;;21.90;99.90;;;;;;5012793;28;20208;-67
2021/06/29 07:31:18;;;;;;;5.90;5.50;;;21.90;99.90;;;;;;5013050;28;20226;-67
2021/06/29 07:33:45;;;;;;;5.68;5.38;;;21.80;99.90;;;;;;5012423;28;20180;-66
2021/06/29 07:36:12;;;;;;;6.38;6.00;;;21.60;99.90;;;;;;5011997;28;20237;-64
2021/06/29 07:38:38;;;;;;;6.00;5.53;;;21.50;99.90;;;;;;5012238;28;20586;-65
2021/06/29 07:41:04;;;;;;;5.35;5.05;;;21.60;99.90;;;;;;5011892;28;20180;-64
2021/06/29 07:43:30;;;;;;;5.68;5.38;;;21.70;99.90;;;;;;5011887;28;20202;-64
2021/06/29 07:45:55;;;;;;;5.50;5.20;;;21.90;99.90;;;;;;5012118;28;20173;-64
2021/06/29 07:48:21;;;;;;;5.13;4.78;;;22.00;99.90;;;;;;5011812;28;20208;-64
2021/06/29 07:50:47;;;;;;;5.50;5.20;;;22.10;99.90;;;;;;5012399;28;20259;-64
2021/06/29 07:53:13;;;;;;;5.72;5.43;;;22.20;99.90;;;;;;5012188;28;20180;-64
2021/06/29 07:55:38;;;;;;;5.70;5.28;;;22.30;99.90;;;;;;5011991;28;20176;-65
2021/06/29 07:58:04;;;;;;;4.95;4.70;;;22.70;99.90;;;;;;5011679;28;20710;-64
2021/06/29 08:00:30;;;;;;;5.30;5.03;;;23.30;99.90;;;;;;5010897;28;20596;-64
2021/06/29 08:02:56;;;;;;;5.88;5.57;;;23.80;99.90;;;;;;5011396;28;20600;-64
2021/06/29 08:05:22;;;;;;;4.13;3.92;;;23.80;99.90;;;;;;5011991;28;20176;-65
2021/06/29 08:07:47;;;;;;;4.35;4.15;;;24.00;99.90;;;;;;5011679;28;20568;-65
2021/06/29 08:10:13;;;;;;;4.35;4.15;;;24.40;99.90;;;;;;5012022;28;20199;-63
2021/06/29 08:12:40;;;;;;;5.13;4.82;;;25.00;99.90;;;;;;5012112;28;20259;-64
2021/06/29 08:15:07;;;;;;;4.97;4.55;;;25.50;99.90;;;;;;5011816;28;20238;-64
2021/06/29 08:17:32;;;;;;;4.10;3.90;;;26.00;99.90;;;;;;5011360;28;20204;-64
2021/06/29 08:19:58;;;;;;;4.30;4.10;;;25.50;99.90;;;;;;5011620;28;20176;-64
2021/06/29 08:22:24;;;;;;;5.20;4.90;;;25.50;99.90;;;;;;5011978;28;20544;-65
2021/06/29 08:24:50;;;;;;;4.13;3.92;;;25.70;99.90;;;;;;5011791;28;20187;-64
2021/06/29 08:27:15;;;;;;;4.68;4.47;;;26.10;99.90;;;;;;5011454;28;20176;-64
2021/06/29 08:29:45;;;;;;;4.78;4.47;;;26.00;99.90;;;;;;5012058;28;20309;-64
2021/06/29 08:32:12;;;;;;;4.80;4.50;;;25.70;99.90;;;;;;5011874;28;20547;-64
2021/06/29 08:34:37;;;;;;;4.53;4.22;;;25.40;99.90;;;;;;5011637;28;20664;-64
2021/06/29 08:37:03;;;;;;;4.68;4.43;;;25.60;99.90;;;;;;5011365;28;20200;-65
2021/06/29 08:39:29;;;;;;;5.18;4.88;;;25.80;99.90;;;;;;5011257;28;20187;-64
2021/06/29 08:41:55;;;;;;;4.85;4.55;;;26.00;99.90;;;;;;5011796;28;20175;-65
2021/06/29 08:44:21;;;;;;;4.78;4.40;;;26.50;99.90;;;;;;5011562;28;20176;-65
2021/06/29 08:46:47;;;;;;;4.93;4.65;;;27.10;99.90;;;;;;5010402;28;20190;-65
2021/06/29 08:49:13;;;;;;;6.28;5.88;;;27.80;99.90;;;;;;5011159;28;20238;-65
2021/06/29 08:51:39;;;;;;;4.82;4.53;;;27.70;99.90;;;;;;5011282;28;20594;-64
2021/06/29 08:54:05;;;;;;;4.10;3.90;;;27.20;99.90;;;;;;5011676;28;20178;-65
2021/06/29 08:56:31;;;;;;;4.53;4.13;;;26.80;99.90;;;;;;5011515;28;20204;-65
2021/06/29 08:58:57;;;;;;;4.55;4.32;;;26.90;99.90;;;;;;5011163;28;20767;-63
2021/06/29 09:01:30;;;;;;;5.35;5.00;;;27.10;99.90;;;;;;5011667;28;20215;-65
2021/06/29 09:03:58;;;;;;;4.80;4.50;;;27.50;99.90;;;;;;5011414;28;20177;-64
2021/06/29 09:06:40;;;;;;;5.32;5.03;;;27.70;99.90;;;;;;5011159;28;20540;-65
2021/06/29 09:09:28;;;;;;;5.55;5.05;;;28.30;99.90;;;;;;5011179;28;20200;-65
2021/06/29 09:11:55;;;;;;;4.75;4.45;;;28.30;99.90;;;;;;5011160;28;20172;-65
2021/06/29 09:14:27;;;;;;;4.75;4.45;;;28.60;99.90;;;;;;5014985;28;20176;-65
2021/06/29 09:16:53;;;;;;;5.80;5.40;;;27.90;99.90;;;;;;5014770;28;20200;-64
2021/06/29 09:19:38;;;;;;;5.97;5.47;;;27.60;99.90;;;;;;5013779;28;20200;-64
2021/06/29 09:22:32;;;;;;;4.57;4.18;;;28.00;99.90;;;;;;5014807;28;20631;-65
2021/06/29 09:24:59;;;;;;;5.85;5.22;;;28.70;99.90;;;;;;5015185;28;20180;-65
2021/06/29 09:27:40;;;;;;;6.45;5.85;;;28.90;99.90;;;;;;5014244;28;20227;-66
2021/06/29 09:30:26;;;;;;;6.50;5.43;;;29.10;99.90;;;;;;5015260;28;20255;-65
2021/06/29 09:32:52;;;;;;;5.50;5.20;;;29.00;99.90;;;;;;5014715;28;20184;-66
2021/06/29 09:35:18;;;;;;;5.68;5.38;;;28.70;99.90;;;;;;5015141;28;20207;-65
2021/06/29 09:37:47;;;;;;;6.40;5.90;;;28.50;99.90;;;;;;5014229;28;20204;-65
2021/06/29 09:40:14;;;;;;;5.00;4.70;;;28.90;99.90;;;;;;5014891;28;20680;-65
2021/06/29 09:42:40;;;;;;;5.25;4.85;;;29.40;99.90;;;;;;5014659;28;20192;-64
2021/06/29 09:45:36;;;;;;;4.70;4.40;;;29.80;99.90;;;;;;5015017;28;20175;-65
2021/06/29 09:48:07;;;;;;;6.03;5.63;;;30.10;99.90;;;;;;5001497;28;20216;-66
2021/06/29 09:50:50;;;;;;;4.88;4.55;;;29.70;99.90;;;;;;5014423;28;20180;-65
2021/06/29 09:53:16;;;;;;;5.28;4.72;;;29.30;99.90;;;;;;5014561;28;20184;-65
2021/06/29 09:55:47;;;;;;;6.05;5.55;;;28.80;99.90;;;;;;5013911;28;20172;-66
2021/06/29 09:58:14;;;;;;;6.45;5.95;;;28.20;99.90;;;;;;5014301;28;20204;-65
2021/06/29 10:00:53;;;;;;;5.32;4.93;;;27.90;99.90;;;;;;5014080;28;20173;-65
2021/06/29 10:03:37;;;;;;;6.88;6.32;;;27.90;99.90;;;;;;5014415;28;20164;-64
2021/06/29 10:06:17;;;;;;;6.70;6.15;;;27.60;99.90;;;;;;5013916;28;20182;-64
2021/06/29 10:08:48;;;;;;;6.95;6.45;;;27.40;99.90;;;;;;5014182;28;20199;-66
2021/06/29 10:11:18;;;;;;;6.32;5.85;;;27.80;99.90;;;;;;5013921;28;20173;-65
2021/06/29 10:13:48;;;;;;;6.15;5.75;;;28.50;99.90;;;;;;5013915;28;20176;-64
2021/06/29 10:16:15;;;;;;;7.00;6.47;;;28.70;99.90;;;;;;5013621;28;20536;-65
2021/06/29 10:21:27;;;;;;;6.10;5.55;;;29.00;99.90;;;;;;5014346;28;20246;-65
2021/06/29 10:23:55;;;;;;;6.15;5.65;;;28.90;99.90;;;;;;5013909;28;20168;-65
2021/06/29 10:26:22;;;;;;;6.68;6.07;;;28.50;99.90;;;;;;5013821;28;20900;-64
2021/06/29 10:28:50;;;;;;;5.70;5.30;;;28.70;99.90;;;;;;5013621;28;20200;-64
2021/06/29 10:31:22;;;;;;;6.03;5.45;;;29.50;99.90;;;;;;5013666;28;20180;-65
2021/06/29 10:33:49;;;;;;;6.60;6.10;;;29.50;99.90;;;;;;5013907;28;20172;-64
2021/06/29 10:36:16;;;;;;;6.90;6.10;;;29.70;99.90;;;;;;5013199;28;20339;-65
2021/06/29 10:38:41;;;;;;;6.25;5.50;;;29.80;99.90;;;;;;5013762;28;20192;-65
2021/06/29 10:41:08;;;;;;;6.25;5.72;;;30.30;99.90;;;;;;5013542;28;20672;-65
2021/06/29 10:43:35;;;;;;;6.35;5.72;;;31.10;99.90;;;;;;5013761;28;20180;-64
2021/06/29 10:46:02;;;;;;;6.45;5.95;;;31.60;99.90;;;;;;5013521;28;20201;-64
2021/06/29 10:48:31;;;;;;;6.20;5.78;;;31.40;99.90;;;;;;5012852;28;20269;-65
2021/06/29 10:50:59;;;;;;;6.57;6.07;;;31.30;99.90;;;;;;5013744;28;20168;-65
2021/06/29 10:53:35;;;;;;;5.57;5.18;;;31.40;99.90;;;;;;5011989;28;20276;-64
2021/06/29 10:56:03;;;;;;;5.35;4.95;;;31.10;99.90;;;;;;5013290;28;20737;-64
2021/06/29 10:58:33;;;;;;;6.43;5.93;;;30.40;99.90;;;;;;5013364;28;20211;-65
2021/06/29 11:01:18;;;;;;;6.03;5.63;;;30.40;99.90;;;;;;5013392;28;20180;-66
2021/06/29 11:03:44;;;;;;;5.15;4.85;;;30.60;99.90;;;;;;5013374;28;20175;-64
2021/06/29 11:06:10;;;;;;;6.22;5.82;;;31.10;99.90;;;;;;5012897;28;20651;-65
2021/06/29 11:08:47;;;;;;;6.40;5.88;;;31.40;99.90;;;;;;5013093;28;20184;-64
2021/06/29 11:11:13;;;;;;;5.70;5.20;;;31.40;99.90;;;;;;5013153;28;20214;-65
2021/06/29 11:13:44;;;;;;;6.45;5.95;;;31.40;99.90;;;;;;5012237;28;20199;-66
2021/06/29 11:16:10;;;;;;;6.45;6.05;;;31.40;99.90;;;;;;5012892;28;20208;-66
2021/06/29 11:18:40;;;;;;;5.70;5.30;;;31.50;99.90;;;;;;5012409;28;20235;-65
2021/06/29 11:21:10;;;;;;;6.10;5.78;;;31.50;99.90;;;;;;5013032;28;20160;-66
2021/06/29 11:23:38;;;;;;;5.45;5.10;;;31.30;99.90;;;;;;5011228;28;20173;-66
2021/06/29 11:26:12;;;;;;;5.95;5.55;;;31.60;99.90;;;;;;5012629;28;20245;-66
2021/06/29 11:28:46;;;;;;;5.97;5.57;;;31.80;99.90;;;;;;5012352;28;20191;-66
2021/06/29 11:31:22;;;;;;;6.10;5.70;;;31.20;99.90;;;;;;5012805;28;20187;-65
2021/06/29 11:33:58;;;;;;;6.35;5.85;;;31.20;99.90;;;;;;5012377;28;20182;-65
2021/06/29 11:36:26;;;;;;;5.63;5.22;;;31.50;99.90;;;;;;5011316;28;20180;-65
2021/06/29 11:39:14;;;;;;;5.85;5.28;;;31.50;99.90;;;;;;5012737;28;20203;-64
2021/06/29 11:41:42;;;;;;;5.40;5.10;;;31.60;99.90;;;;;;5012366;28;20254;-65
2021/06/29 11:44:08;;;;;;;4.43;4.22;;;31.60;99.90;;;;;;5012522;28;20168;-65
2021/06/29 11:46:49;;;;;;;5.50;5.20;;;31.50;99.90;;;;;;5011937;28;20251;-64
2021/06/29 11:49:46;;;;;;;5.45;4.95;;;30.40;99.90;;;;;;5012093;28;20203;-65
2021/06/29 11:52:16;;;;;;;5.13;4.82;;;29.50;99.90;;;;;;5012271;28;20180;-64
2021/06/29 11:54:58;;;;;;;7.43;7.03;;;30.10;99.90;;;;;;5010745;28;20307;-64
2021/06/29 11:57:35;;;;;;;7.15;6.65;;;30.80;99.90;;;;;;5011702;28;20204;-64
2021/06/29 12:00:20;;;;;;;5.93;5.53;;;31.50;99.90;;;;;;5012701;28;20180;-65
2021/06/29 12:02:50;;;;;;;6.22;5.82;;;31.80;99.90;;;;;;5012137;28;20203;-66
2021/06/29 12:05:28;;;;;;;5.13;4.80;;;32.10;99.90;;;;;;5012210;28;20566;-65
2021/06/29 12:07:56;;;;;;;6.25;5.82;;;32.50;99.90;;;;;;5011919;28;20204;-64
2021/06/29 12:10:29;;;;;;;4.70;4.40;;;33.00;99.90;;;;;;5011984;28;20180;-64
2021/06/29 12:13:16;;;;;;;5.75;5.45;;;33.60;99.90;;;;;;5012064;28;20195;-64
2021/06/29 12:15:43;;;;;;;5.47;5.18;;;33.70;99.90;;;;;;5011252;28;20250;-64
2021/06/29 12:18:16;;;;;;;4.95;4.65;;;33.10;99.90;;;;;;5011579;28;20210;-65
2021/06/29 12:20:54;;;;;;;6.25;5.82;;;31.70;99.90;;;;;;5010367;28;20183;-65
2021/06/29 12:23:25;;;;;;;4.70;4.43;;;31.10;99.90;;;;;;4992649;28;20187;-65
2021/06/29 12:25:53;;;;;;;5.35;5.05;;;30.90;99.90;;;;;;4991937;28;20247;-64
2021/06/29 12:28:27;;;;;;;4.82;4.53;;;30.70;99.90;;;;;;5011157;28;20200;-64
2021/06/29 12:30:57;;;;;;;4.50;4.30;;;29.90;99.90;;;;;;5012033;28;20184;-65
2021/06/29 12:33:31;;;;;;;4.95;4.65;;;29.60;99.90;;;;;;5009925;28;20274;-65
2021/06/29 12:36:04;;;;;;;4.60;4.20;;;29.80;99.90;;;;;;5011210;28;20184;-65
2021/06/29 12:38:33;;;;;;;4.50;4.10;;;30.50;99.90;;;;;;5011340;28;20216;-64
2021/06/29 12:41:02;;;;;;;4.43;4.10;;;31.30;99.90;;;;;;5011477;28;20161;-64
2021/06/29 12:43:42;;;;;;;4.82;4.53;;;32.00;99.90;;;;;;5011355;28;20172;-65
2021/06/29 12:46:15;;;;;;;4.93;4.63;;;31.80;99.90;;;;;;5011361;28;20179;-64
2021/06/29 12:49:16;;;;;;;5.38;5.07;;;31.60;99.90;;;;;;5014482;28;20207;-64
2021/06/29 12:52:01;;;;;;;6.40;6.10;;;31.40;99.90;;;;;;5015231;28;20207;-64
2021/06/29 12:54:29;;;;;;;4.30;4.10;;;31.20;99.90;;;;;;4995560;28;20173;-64
2021/06/29 12:57:00;;;;;;;5.05;4.55;;;30.80;99.90;;;;;;5011517;28;20214;-64